Wetterdaten von Freitag, 07.08.2020 09:20 bis Samstag, 08.08.2020 09:10
Datum/Zeit Temp. A. Feuchte Luftdruck Regen Solar Sonne Wind Windben Richtung
07.08.2020 09:20 24,1 C 56 % 1.020,4 hpa 338 W/m 10 min 1,6 km/h N
07.08.2020 09:30 24,7 C 59 % 1.020,4 hpa 324 W/m 10 min N
07.08.2020 09:40 25,5 C 51 % 1.020,4 hpa 324 W/m 10 min 8,0 km/h N
07.08.2020 09:50 26,7 C 51 % 1.020,4 hpa 364 W/m 10 min 4,8 km/h N
07.08.2020 10:00 27,2 C 49 % 1.020,4 hpa 413 W/m 10 min 1,6 km/h N
07.08.2020 10:10 27,7 C 48 % 1.020,4 hpa 451 W/m 10 min 4,8 km/h N
07.08.2020 10:20 28,2 C 45 % 1.020,4 hpa 488 W/m 10 min 3,2 km/h 9,7 km/h O
07.08.2020 10:30 28,6 C 45 % 1.020,5 hpa 522 W/m 10 min 3,2 km/h 8,0 km/h O
07.08.2020 10:40 28,7 C 44 % 1.020,4 hpa 522 W/m 10 min 1,6 km/h 9,7 km/h O
07.08.2020 10:50 28,9 C 43 % 1.020,4 hpa 492 W/m 10 min 1,6 km/h 9,7 km/h O
07.08.2020 11:00 29,3 C 41 % 1.020,4 hpa 508 W/m 10 min 3,2 km/h 11,3 km/h O
07.08.2020 11:10 29,4 C 43 % 1.020,5 hpa 499 W/m 10 min 4,8 km/h 14,5 km/h O
07.08.2020 11:20 29,8 C 41 % 1.020,4 hpa 541 W/m 10 min 3,2 km/h 11,3 km/h O
07.08.2020 11:30 30,1 C 41 % 1.020,4 hpa 585 W/m 10 min 1,6 km/h 14,5 km/h O
07.08.2020 11:40 30,1 C 42 % 1.020,3 hpa 632 W/m 10 min 1,6 km/h 11,3 km/h O
07.08.2020 11:50 30,4 C 41 % 1.020,1 hpa 673 W/m 10 min 1,6 km/h 11,3 km/h O
07.08.2020 12:00 30,9 C 40 % 1.020,1 hpa 749 W/m 10 min 1,6 km/h 9,7 km/h O
07.08.2020 12:10 31,1 C 38 % 1.020,0 hpa 766 W/m 10 min 1,6 km/h 6,4 km/h O
07.08.2020 12:20 31,3 C 37 % 1.020,1 hpa 770 W/m 10 min 1,6 km/h 11,3 km/h O
07.08.2020 12:30 31,3 C 38 % 1.019,9 hpa 789 W/m 10 min 1,6 km/h 14,5 km/h N/NO
07.08.2020 12:40 31,7 C 37 % 1.019,8 hpa 799 W/m 10 min 1,6 km/h 11,3 km/h O
07.08.2020 12:50 31,8 C 37 % 1.019,8 hpa 806 W/m 10 min 3,2 km/h 16,1 km/h O
07.08.2020 13:00 31,8 C 36 % 1.019,9 hpa 812 W/m 10 min 1,6 km/h 8,0 km/h O
07.08.2020 13:10 32,2 C 35 % 1.019,8 hpa 821 W/m 10 min 1,6 km/h N
07.08.2020 13:20 31,8 C 35 % 1.019,8 hpa 824 W/m 10 min 4,8 km/h N
07.08.2020 13:30 32,0 C 34 % 1.019,6 hpa 828 W/m 10 min 8,0 km/h N
07.08.2020 13:40 31,7 C 38 % 1.019,7 hpa 828 W/m 10 min 1,6 km/h N
07.08.2020 13:50 32,2 C 34 % 1.019,5 hpa 826 W/m 10 min 9,7 km/h N
07.08.2020 14:00 32,6 C 35 % 1.019,4 hpa 826 W/m 10 min 1,6 km/h 16,1 km/h O
07.08.2020 14:10 32,9 C 36 % 1.019,3 hpa 824 W/m 10 min 4,8 km/h N
07.08.2020 14:20 32,9 C 36 % 1.019,3 hpa 823 W/m 10 min N
07.08.2020 14:30 32,9 C 34 % 1.019,3 hpa 820 W/m 10 min 1,6 km/h 11,3 km/h O
07.08.2020 14:40 31,9 C 34 % 1.019,3 hpa 811 W/m 10 min 6,4 km/h N
07.08.2020 14:50 32,2 C 35 % 1.019,2 hpa 802 W/m 10 min 3,2 km/h N
07.08.2020 15:00 32,2 C 36 % 1.019,2 hpa 789 W/m 10 min N
07.08.2020 15:10 33,0 C 32 % 1.019,1 hpa 788 W/m 10 min 8,0 km/h N
07.08.2020 15:20 32,9 C 35 % 1.019,0 hpa 770 W/m 10 min 6,4 km/h N
07.08.2020 15:30 32,7 C 33 % 1.019,0 hpa 755 W/m 10 min N
07.08.2020 15:40 32,9 C 34 % 1.018,9 hpa 741 W/m 10 min N
07.08.2020 15:50 34,2 C 35 % 1.018,9 hpa 722 W/m 10 min 3,2 km/h N
07.08.2020 16:00 34,2 C 34 % 1.018,9 hpa 708 W/m 10 min 1,6 km/h 8,0 km/h O
07.08.2020 16:10 33,9 C 33 % 1.018,8 hpa 695 W/m 10 min N
07.08.2020 16:20 33,9 C 33 % 1.018,7 hpa 678 W/m 10 min 6,4 km/h N
07.08.2020 16:30 33,8 C 32 % 1.018,5 hpa 655 W/m 10 min 8,0 km/h N
07.08.2020 16:40 34,1 C 32 % 1.018,5 hpa 634 W/m 10 min 3,2 km/h N
07.08.2020 16:50 34,2 C 32 % 1.018,4 hpa 613 W/m 10 min N
07.08.2020 17:00 34,1 C 34 % 1.018,4 hpa 591 W/m 10 min 4,8 km/h N
07.08.2020 17:10 34,1 C 34 % 1.018,4 hpa 566 W/m 10 min 1,6 km/h 8,0 km/h O
07.08.2020 17:20 34,4 C 33 % 1.018,3 hpa 543 W/m 10 min 9,7 km/h N
07.08.2020 17:30 33,9 C 33 % 1.018,3 hpa 520 W/m 10 min 1,6 km/h N
07.08.2020 17:40 34,3 C 33 % 1.018,3 hpa 491 W/m 10 min 1,6 km/h 14,5 km/h S/SO
07.08.2020 17:50 34,1 C 33 % 1.018,2 hpa 462 W/m 10 min 6,4 km/h N
07.08.2020 18:00 33,8 C 33 % 1.018,3 hpa 438 W/m 10 min 6,4 km/h N
07.08.2020 18:10 34,3 C 35 % 1.018,3 hpa 411 W/m 10 min 1,6 km/h N
07.08.2020 18:20 33,9 C 33 % 1.018,2 hpa 384 W/m 10 min 8,0 km/h N
07.08.2020 18:30 33,8 C 34 % 1.018,1 hpa 356 W/m 10 min 4,8 km/h N
07.08.2020 18:40 33,9 C 33 % 1.017,9 hpa 329 W/m 10 min 4,8 km/h N
07.08.2020 18:50 34,0 C 33 % 1.017,8 hpa 300 W/m 10 min 6,4 km/h N
07.08.2020 19:00 34,2 C 33 % 1.017,9 hpa 269 W/m 10 min 14,5 km/h N
07.08.2020 19:10 34,4 C 33 % 1.017,9 hpa 239 W/m 10 min 1,6 km/h N
07.08.2020 19:20 34,4 C 33 % 1.017,9 hpa 211 W/m 10 min 4,8 km/h N
07.08.2020 19:30 34,3 C 32 % 1.017,9 hpa 183 W/m 10 min 1,6 km/h N
07.08.2020 19:40 34,0 C 33 % 1.017,9 hpa 157 W/m 10 min 3,2 km/h N
07.08.2020 19:50 33,6 C 34 % 1.017,9 hpa 97 W/m 1,6 km/h N
07.08.2020 20:00 33,2 C 36 % 1.017,9 hpa 29 W/m N
07.08.2020 20:10 32,7 C 36 % 1.017,9 hpa 25 W/m N
07.08.2020 20:20 32,1 C 38 % 1.017,7 hpa 21 W/m N
07.08.2020 20:30 31,4 C 40 % 1.017,8 hpa 18 W/m N
07.08.2020 20:40 30,8 C 41 % 1.017,9 hpa 14 W/m N
07.08.2020 20:50 30,3 C 43 % 1.018,0 hpa 10 W/m N
07.08.2020 21:00 29,7 C 45 % 1.017,9 hpa 5 W/m N
07.08.2020 21:10 28,9 C 48 % 1.018,0 hpa N
07.08.2020 21:20 28,3 C 49 % 1.018,2 hpa N
07.08.2020 21:30 27,7 C 51 % 1.018,2 hpa N
07.08.2020 21:40 27,1 C 52 % 1.018,3 hpa N
07.08.2020 21:50 26,6 C 53 % 1.018,4 hpa N
07.08.2020 22:00 26,2 C 53 % 1.018,4 hpa N
07.08.2020 22:10 25,8 C 54 % 1.018,5 hpa N
07.08.2020 22:20 25,4 C 55 % 1.018,5 hpa N
07.08.2020 22:30 25,0 C 57 % 1.018,6 hpa N
07.08.2020 22:40 24,6 C 58 % 1.018,6 hpa N
07.08.2020 22:50 24,3 C 58 % 1.018,7 hpa N
07.08.2020 23:00 23,9 C 60 % 1.018,6 hpa N
07.08.2020 23:10 23,6 C 61 % 1.018,7 hpa N
07.08.2020 23:20 23,3 C 62 % 1.018,7 hpa N
07.08.2020 23:30 22,9 C 63 % 1.018,7 hpa N
07.08.2020 23:40 22,7 C 64 % 1.018,7 hpa N
07.08.2020 23:50 22,4 C 66 % 1.018,6 hpa N
08.08.2020 00:00 22,1 C 66 % 1.018,5 hpa N
08.08.2020 00:10 21,8 C 67 % 1.018,6 hpa N
08.08.2020 00:20 21,6 C 67 % 1.018,5 hpa N
08.08.2020 00:30 21,4 C 67 % 1.018,6 hpa N
08.08.2020 00:40 21,2 C 68 % 1.018,8 hpa N
08.08.2020 00:50 21,1 C 68 % 1.018,8 hpa N
08.08.2020 01:00 20,9 C 69 % 1.018,8 hpa N
08.08.2020 01:10 20,8 C 70 % 1.018,8 hpa N
08.08.2020 01:20 20,6 C 70 % 1.018,8 hpa N
08.08.2020 01:30 20,4 C 71 % 1.018,7 hpa N
08.08.2020 01:40 20,3 C 72 % 1.018,7 hpa N
08.08.2020 01:50 20,2 C 72 % 1.018,8 hpa N
08.08.2020 02:00 20,0 C 73 % 1.018,7 hpa N
08.08.2020 02:10 19,8 C 73 % 1.018,6 hpa N
08.08.2020 02:20 19,6 C 73 % 1.018,6 hpa N
08.08.2020 02:30 19,3 C 74 % 1.018,5 hpa N
08.08.2020 02:40 19,1 C 74 % 1.018,6 hpa N
08.08.2020 02:50 18,9 C 75 % 1.018,6 hpa N
08.08.2020 03:00 18,8 C 76 % 1.018,5 hpa N
08.08.2020 03:10 18,7 C 77 % 1.018,4 hpa N
08.08.2020 03:20 18,6 C 78 % 1.018,3 hpa N
08.08.2020 03:30 18,5 C 79 % 1.018,3 hpa N
08.08.2020 03:40 18,3 C 79 % 1.018,3 hpa N
08.08.2020 03:50 18,2 C 80 % 1.018,3 hpa N
08.08.2020 04:00 18,1 C 80 % 1.018,2 hpa N
08.08.2020 04:10 18,0 C 81 % 1.018,2 hpa N
08.08.2020 04:20 17,9 C 81 % 1.018,3 hpa N
08.08.2020 04:30 17,8 C 82 % 1.018,2 hpa N
08.08.2020 04:40 17,7 C 82 % 1.018,2 hpa N
08.08.2020 04:50 17,7 C 82 % 1.018,2 hpa N
08.08.2020 05:00 17,6 C 83 % 1.018,2 hpa N
08.08.2020 05:10 17,6 C 83 % 1.018,2 hpa N
08.08.2020 05:20 17,5 C 83 % 1.018,4 hpa N
08.08.2020 05:30 17,4 C 84 % 1.018,5 hpa N
08.08.2020 05:40 17,4 C 84 % 1.018,6 hpa N
08.08.2020 05:50 17,4 C 85 % 1.018,6 hpa N
08.08.2020 06:00 17,3 C 85 % 1.018,7 hpa N
08.08.2020 06:10 17,3 C 85 % 1.018,6 hpa 2 W/m N
08.08.2020 06:20 17,2 C 85 % 1.018,8 hpa 8 W/m N
08.08.2020 06:30 17,1 C 85 % 1.018,8 hpa 12 W/m N
08.08.2020 06:40 17,1 C 86 % 1.018,9 hpa 16 W/m N
08.08.2020 06:50 17,1 C 86 % 1.018,9 hpa 22 W/m N
08.08.2020 07:00 17,1 C 86 % 1.019,0 hpa 51 W/m N
08.08.2020 07:10 17,1 C 87 % 1.019,0 hpa 34 W/m N
08.08.2020 07:20 17,2 C 87 % 1.019,1 hpa 45 W/m N
08.08.2020 07:30 17,4 C 89 % 1.019,1 hpa 87 W/m N
08.08.2020 07:40 17,7 C 87 % 1.019,1 hpa 142 W/m 10 min N
08.08.2020 07:50 18,1 C 88 % 1.019,0 hpa 164 W/m 10 min N
08.08.2020 08:00 18,6 C 87 % 1.019,1 hpa 188 W/m 10 min N
08.08.2020 08:10 19,2 C 84 % 1.019,1 hpa 214 W/m 10 min 1,6 km/h N
08.08.2020 08:20 19,8 C 82 % 1.019,1 hpa 239 W/m 10 min N
08.08.2020 08:30 20,5 C 80 % 1.019,1 hpa 266 W/m 10 min N
08.08.2020 08:40 21,4 C 75 % 1.019,0 hpa 293 W/m 10 min N
08.08.2020 08:50 23,2 C 70 % 1.019,0 hpa 310 W/m 10 min N
08.08.2020 09:00 24,1 C 67 % 1.019,0 hpa 280 W/m 10 min N
08.08.2020 09:10 24,8 C 62 % 1.019,1 hpa 308 W/m 10 min N
Minimum: 17,1 C
07:10
32 %
19:30
1.017,7 hpa
20:20

09:10

06:00

09:10
24,8 km/h
09:10
N/NO
0,7%
Maximum: 34,4 C
19:20
89 %
07:30
1.020,5 hpa
11:10

09:10
828 W/m
13:40
4,8 km/h
11:10
16,1 km/h
14:00
N
84,7%
Durchschnitt/
Summe:
26,1 C 56 % 1.018,9 hpa # 279 W/m ,3 km/h 3,0 km/h N
13,1